createdAt,value
2022-08-22T00:01:16.742Z,99949.60
2022-08-22T00:02:55.897Z,99862.94
2022-08-22T00:02:59.713Z,99863.04
2022-08-22T00:03:03.387Z,99834.63
2022-08-22T00:03:09.129Z,99844.90
2022-08-22T00:03:10.809Z,99955.29
2022-08-22T00:03:51.225Z,99945.66
2022-08-22T00:06:24.536Z,99936.36
2022-08-22T00:09:17.078Z,99932.13
2022-08-22T00:11:51.991Z,99925.77
2022-08-22T00:14:24.531Z,99923.34
2022-08-22T00:17:05.475Z,99924.17
2022-08-22T00:19:42.172Z,99929.38
2022-08-22T00:22:17.540Z,99927.35
2022-08-22T00:24:51.941Z,99918.62
2022-08-22T00:27:26.760Z,99912.36
2022-08-22T00:29:58.749Z,99905.30
2022-08-22T00:32:35.507Z,99899.59
2022-08-22T00:35:10.076Z,99893.50
2022-08-22T00:37:44.883Z,99893.93
2022-08-22T00:40:35.657Z,99902.41
2022-08-22T00:43:09.654Z,99904.95
2022-08-22T00:46:03.264Z,99904.31
2022-08-22T00:48:40.495Z,99902.46
2022-08-22T00:51:21.715Z,99903.79
2022-08-22T00:53:58.823Z,99909.30
2022-08-22T00:56:45.074Z,99909.08
2022-08-22T00:59:25.852Z,99909.60
2022-08-22T01:02:01.404Z,99912.96
2022-08-22T01:04:41.643Z,99917.58
2022-08-22T01:07:16.107Z,99921.05
2022-08-22T01:09:54.410Z,99921.55
2022-08-22T01:12:47.608Z,99920.05
2022-08-22T01:15:19.141Z,99923.64
2022-08-22T01:18:09.656Z,99923.44
2022-08-22T01:21:05.082Z,99921.35
2022-08-22T01:23:47.088Z,99925.61
2022-08-22T01:26:35.580Z,99921.96
2022-08-22T01:29:27.707Z,99927.39
2022-08-22T01:32:12.749Z,99928.98
2022-08-22T01:35:04.336Z,99927.59
2022-08-22T01:38:04.152Z,99928.78
2022-08-22T01:40:54.444Z,99924.91
2022-08-22T01:43:43.840Z,99923.61
2022-08-22T01:46:27.984Z,99920.31
2022-08-22T01:49:07.151Z,99920.55
2022-08-22T01:51:39.951Z,99916.90
2022-08-22T01:54:16.509Z,99909.66
2022-08-22T01:56:49.756Z,99904.30
2022-08-22T01:59:33.734Z,99904.19
2022-08-22T02:02:11.048Z,99905.27
2022-08-22T02:04:44.480Z,99908.13
2022-08-22T02:07:19.536Z,99911.43
2022-08-22T02:10:06.687Z,99912.08
2022-08-22T02:12:39.335Z,99912.81
2022-08-22T02:15:22.991Z,99909.95
2022-08-22T02:18:14.718Z,99912.58
2022-08-22T02:20:59.867Z,99908.14
2022-08-22T02:23:35.659Z,99906.29
2022-08-22T02:26:07.772Z,99902.80
2022-08-22T02:28:57.041Z,99895.83
2022-08-22T02:31:34.745Z,99895.01
2022-08-22T02:34:17.143Z,99895.52
2022-08-22T02:36:48.590Z,99897.37
2022-08-22T02:39:25.844Z,99897.64
2022-08-22T02:41:57.144Z,99899.26
2022-08-22T02:44:30.715Z,99898.64
2022-08-22T02:47:04.392Z,99901.88
2022-08-22T02:49:44.046Z,99905.45
2022-08-22T02:52:25.959Z,99905.34
2022-08-22T02:55:01.454Z,99902.13
2022-08-22T02:57:40.517Z,99902.89
2022-08-22T03:00:30.779Z,99903.98
2022-08-22T03:03:11.764Z,99900.45
2022-08-22T03:05:50.340Z,99898.79
2022-08-22T03:08:24.250Z,99902.39
2022-08-22T03:10:59.008Z,99897.23
2022-08-22T03:13:35.189Z,99892.96
2022-08-22T03:16:10.957Z,99886.40
2022-08-22T03:18:45.315Z,99886.71
2022-08-22T03:21:20.465Z,99882.55
2022-08-22T03:23:52.379Z,99883.61
2022-08-22T03:26:26.366Z,99882.90
2022-08-22T03:28:59.945Z,99884.88
2022-08-22T03:31:33.514Z,99886.45
2022-08-22T03:34:22.544Z,99888.77
2022-08-22T03:37:04.865Z,99890.13
2022-08-22T03:39:44.493Z,99889.16
2022-08-22T03:42:25.279Z,99892.41
2022-08-22T03:45:10.683Z,99892.20
2022-08-22T03:48:01.609Z,99889.45
2022-08-22T03:50:54.645Z,99890.35
2022-08-22T03:53:51.748Z,99888.71
2022-08-22T03:56:26.764Z,99893.64
2022-08-22T03:59:15.344Z,99895.81
2022-08-22T04:02:04.575Z,99901.01
2022-08-22T04:05:05.277Z,99906.44
2022-08-22T04:07:48.370Z,99902.23
2022-08-22T04:10:51.825Z,99900.77
2022-08-22T04:13:35.881Z,99903.63
2022-08-22T04:16:32.078Z,99907.08
2022-08-22T04:19:16.080Z,99910.02
2022-08-22T04:22:10.472Z,99918.52
2022-08-22T04:25:00.585Z,99923.60
2022-08-22T04:27:34.337Z,99924.68
2022-08-22T04:30:07.100Z,99929.13
2022-08-22T04:32:39.423Z,99936.14
2022-08-22T04:35:12.245Z,99937.66
2022-08-22T04:37:46.537Z,99944.34
2022-08-22T04:40:18.934Z,99944.31
2022-08-22T04:42:53.514Z,99943.64
2022-08-22T04:45:25.649Z,99943.11
2022-08-22T04:47:58.051Z,99941.85
2022-08-22T04:50:34.184Z,99942.55
2022-08-22T04:53:14.001Z,99943.59
2022-08-22T04:55:48.185Z,99948.56
2022-08-22T04:58:23.728Z,99949.60
2022-08-22T05:00:58.680Z,99953.30
2022-08-22T05:03:30.100Z,99959.42
2022-08-22T05:06:05.702Z,99958.75
2022-08-22T05:08:39.663Z,99963.02
2022-08-22T05:11:10.718Z,99965.83
2022-08-22T05:13:47.364Z,99967.30
2022-08-22T05:16:24.380Z,99972.38
2022-08-22T05:19:04.049Z,99977.42
2022-08-22T05:21:35.645Z,99980.55
2022-08-22T05:24:07.188Z,99978.61
2022-08-22T05:26:39.344Z,99978.73
2022-08-22T05:29:13.650Z,99983.70
2022-08-22T05:31:45.193Z,99987.83
2022-08-22T05:34:18.835Z,99992.48
2022-08-22T05:36:50.391Z,99993.27
2022-08-22T05:39:21.957Z,99997.58
2022-08-22T05:41:57.055Z,99998.77
2022-08-22T05:44:29.199Z,100000.27
2022-08-22T05:47:01.730Z,100004.61
2022-08-22T05:49:33.332Z,100003.96
2022-08-22T05:52:07.351Z,100003.94
2022-08-22T05:54:42.767Z,100010.11
2022-08-22T05:57:15.275Z,100010.44
2022-08-22T05:59:46.664Z,100008.56
2022-08-22T06:02:23.633Z,100014.29
2022-08-22T06:04:57.832Z,100011.88
2022-08-22T06:07:32.368Z,100017.57
2022-08-22T06:10:20.184Z,100014.29
2022-08-22T06:12:53.715Z,100018.27
2022-08-22T06:15:25.033Z,100019.48
2022-08-22T06:17:56.365Z,100025.45
2022-08-22T06:20:31.951Z,100025.65
2022-08-22T06:23:05.715Z,100026.62
2022-08-22T06:25:37.960Z,100025.40
2022-08-22T06:28:09.980Z,100033.98
2022-08-22T06:30:40.844Z,100037.68
2022-08-22T06:33:12.976Z,100041.23
2022-08-22T06:36:02.533Z,100040.70
2022-08-22T06:38:34.549Z,100040.50
2022-08-22T06:41:08.196Z,100039.02
2022-08-22T06:43:43.008Z,100041.39
2022-08-22T06:46:13.996Z,100039.57
2022-08-22T06:48:47.742Z,100045.95
2022-08-22T06:51:19.147Z,100047.51
2022-08-22T06:53:52.770Z,100046.89
2022-08-22T06:56:25.548Z,100049.02
2022-08-22T06:58:57.645Z,100047.75
2022-08-22T07:01:29.627Z,100051.86
2022-08-22T07:04:01.583Z,100053.52
2022-08-22T07:06:33.503Z,100052.35
2022-08-22T07:09:07.338Z,100055.60
2022-08-22T07:11:39.948Z,100056.69
2022-08-22T07:14:11.746Z,100057.07
2022-08-22T07:16:43.778Z,100056.77
2022-08-22T07:19:24.082Z,100058.88
2022-08-22T07:21:55.059Z,100056.57
2022-08-22T07:24:27.233Z,100063.34
2022-08-22T07:27:09.297Z,100060.13
2022-08-22T07:29:44.339Z,100063.23
2022-08-22T07:32:16.583Z,100063.11
2022-08-22T07:34:57.155Z,100068.65
2022-08-22T07:37:31.003Z,100074.63
2022-08-22T07:40:03.770Z,100073.54
2022-08-22T07:42:36.243Z,100073.67
2022-08-22T07:45:08.708Z,100072.09
2022-08-22T07:47:48.018Z,100076.62
2022-08-22T07:50:22.040Z,100071.75
2022-08-22T07:52:52.867Z,100071.95
2022-08-22T07:55:24.407Z,100068.92
2022-08-22T07:57:59.261Z,100067.27
2022-08-22T08:00:32.748Z,100062.54
2022-08-22T08:03:04.686Z,100057.79
2022-08-22T08:05:37.413Z,100055.90
2022-08-22T08:08:08.611Z,100054.41
2022-08-22T08:10:44.817Z,100054.97
2022-08-22T08:13:18.056Z,100047.96
2022-08-22T08:15:48.928Z,100044.42
2022-08-22T08:18:25.916Z,100044.23
2022-08-22T08:20:58.688Z,100042.55
2022-08-22T08:23:39.442Z,100037.05
2022-08-22T08:26:16.424Z,100035.04
2022-08-22T08:28:47.797Z,100030.70
2022-08-22T08:31:21.195Z,100031.85
2022-08-22T08:33:53.021Z,100035.79
2022-08-22T08:36:29.060Z,100041.55
2022-08-22T08:39:01.318Z,100040.39
2022-08-22T08:41:42.379Z,100038.80
2022-08-22T08:44:24.360Z,100041.11
2022-08-22T08:47:01.737Z,100044.02
2022-08-22T08:49:51.273Z,100044.81
2022-08-22T08:52:37.710Z,100043.66
2022-08-22T08:58:10.268Z,100046.52
2022-08-22T09:00:56.135Z,100045.84
2022-08-22T09:03:33.766Z,100038.38
2022-08-22T09:06:11.313Z,100037.00
2022-08-22T09:09:03.455Z,100042.29
2022-08-22T09:11:56.235Z,100043.05
2022-08-22T09:14:40.208Z,100044.99
2022-08-22T09:17:34.262Z,100045.69
2022-08-22T09:20:25.331Z,100041.14
2022-08-22T09:23:10.077Z,100041.80
2022-08-22T09:25:42.006Z,100039.07
2022-08-22T09:28:14.284Z,100034.66
2022-08-22T09:30:57.388Z,100033.72
2022-08-22T09:33:34.534Z,100033.02
2022-08-22T09:36:07.332Z,100025.47
2022-08-22T09:38:49.703Z,100026.94
2022-08-22T09:41:28.817Z,100027.00
2022-08-22T09:44:05.178Z,100023.50
2022-08-22T09:46:38.472Z,100020.92
2022-08-22T09:49:11.004Z,100020.70
2022-08-22T09:51:44.223Z,100022.59
2022-08-22T09:54:22.638Z,100022.07
2022-08-22T09:57:08.704Z,100022.39
2022-08-22T10:00:13.632Z,100020.39
2022-08-22T10:02:50.262Z,100020.24
2022-08-22T10:05:40.776Z,100016.66
2022-08-22T10:08:25.503Z,100019.42
2022-08-22T10:11:11.248Z,100019.99
2022-08-22T10:13:56.574Z,100022.81
2022-08-22T10:16:45.967Z,100024.91
2022-08-22T10:19:25.396Z,100023.27
2022-08-22T10:22:30.324Z,100018.63
2022-08-22T10:25:10.535Z,100016.73
2022-08-22T10:27:45.527Z,100015.27
2022-08-22T10:30:23.712Z,100016.96
2022-08-22T10:32:58.340Z,100014.59
2022-08-22T10:35:33.690Z,100017.80
2022-08-22T10:38:10.662Z,100012.61
2022-08-22T10:40:44.101Z,100005.49
2022-08-22T10:43:20.111Z,100005.96
2022-08-22T10:45:53.365Z,100008.17
2022-08-22T10:48:29.492Z,100000.63
2022-08-22T10:51:03.404Z,99994.15
2022-08-22T10:53:55.924Z,99994.68
2022-08-22T10:56:29.102Z,99992.75
2022-08-22T10:59:03.990Z,99990.14
2022-08-22T11:01:41.998Z,99987.85
2022-08-22T11:04:19.632Z,99984.98
2022-08-22T11:07:03.388Z,99985.88
2022-08-22T11:09:43.985Z,99980.75
2022-08-22T11:12:18.434Z,99983.20
2022-08-22T11:14:58.408Z,99977.08
2022-08-22T11:17:40.644Z,99972.39
2022-08-22T11:20:19.621Z,99974.88
2022-08-22T11:22:57.023Z,99971.83
2022-08-22T11:25:38.762Z,99963.84
2022-08-22T11:28:23.122Z,99957.80
2022-08-22T11:31:00.901Z,99953.64
2022-08-22T11:33:46.315Z,99955.14
2022-08-22T11:36:31.103Z,99956.31
2022-08-22T11:39:07.924Z,99953.71
2022-08-22T11:41:55.763Z,99951.36
2022-08-22T11:44:32.143Z,99952.00
2022-08-22T11:47:11.655Z,99944.14
2022-08-22T11:49:45.912Z,99940.69
2022-08-22T11:52:24.753Z,99929.26
2022-08-22T11:55:18.237Z,99922.36
2022-08-22T11:57:52.185Z,99921.74
2022-08-22T12:00:32.161Z,99917.50
2022-08-22T12:03:23.162Z,99908.61
2022-08-22T12:05:56.628Z,99905.84
2022-08-22T12:08:46.620Z,99903.14
2022-08-22T12:11:18.560Z,99905.61
2022-08-22T12:13:51.357Z,99905.64
2022-08-22T12:16:36.120Z,99905.89
2022-08-22T12:19:10.973Z,99911.52
2022-08-22T12:22:03.220Z,99910.59
2022-08-22T12:24:55.797Z,99911.11
2022-08-22T12:27:37.706Z,99909.48
2022-08-22T12:30:17.278Z,99908.54
2022-08-22T12:33:05.727Z,99909.27
2022-08-22T12:35:38.826Z,99911.28
2022-08-22T12:38:28.277Z,99915.30
2022-08-22T12:41:08.104Z,99915.36
2022-08-22T12:43:44.228Z,99914.00
2022-08-22T12:46:24.770Z,99909.48
2022-08-22T12:49:15.914Z,99906.19
2022-08-22T12:51:51.965Z,99901.80
2022-08-22T12:54:37.392Z,99906.77
2022-08-22T12:57:24.458Z,99914.10
2022-08-22T12:59:58.952Z,99911.23
2022-08-22T13:02:34.857Z,99904.88
2022-08-22T13:05:11.009Z,99907.95
2022-08-22T13:07:41.990Z,99906.77
2022-08-22T13:10:33.227Z,99908.95
2022-08-22T13:13:12.349Z,99911.70
2022-08-22T13:15:47.049Z,99923.51
2022-08-22T13:18:29.965Z,99916.75
2022-08-22T13:21:02.631Z,99916.09
2022-08-22T13:23:40.018Z,99921.46
2022-08-22T13:26:31.832Z,99927.27
2022-08-22T13:29:25.150Z,99935.15
2022-08-22T13:32:01.908Z,99932.23
2022-08-22T13:34:39.986Z,99925.52
2022-08-22T13:37:13.209Z,99924.80
2022-08-22T13:39:49.208Z,99930.36
2022-08-22T13:42:30.272Z,99926.30
2022-08-22T13:45:06.538Z,99925.68
2022-08-22T13:47:39.575Z,99925.04
2022-08-22T13:50:14.032Z,99924.22
2022-08-22T13:52:52.604Z,99933.64
2022-08-22T13:55:30.344Z,99938.42
2022-08-22T13:58:02.573Z,99938.59
2022-08-22T14:00:57.426Z,99944.83
2022-08-22T14:03:31.532Z,99945.34
2022-08-22T14:06:32.560Z,99948.14
2022-08-22T14:08:57.524Z,99947.61
2022-08-22T14:11:30.807Z,99945.36
2022-08-22T14:14:02.337Z,99949.10
2022-08-22T14:16:34.924Z,99949.48
2022-08-22T14:19:06.821Z,99951.18
2022-08-22T14:21:40.501Z,99946.00
2022-08-22T14:24:25.752Z,99940.49
2022-08-22T14:27:00.044Z,99941.75
2022-08-22T14:29:50.248Z,99939.75
2022-08-22T14:32:42.564Z,99943.41
2022-08-22T14:35:21.656Z,99943.50
2022-08-22T14:38:02.919Z,99940.73
2022-08-22T14:40:35.444Z,99945.11
2022-08-22T14:43:06.610Z,99946.59
2022-08-22T14:45:38.118Z,99953.63
2022-08-22T14:48:31.690Z,99958.70
2022-08-22T14:51:05.226Z,99967.77
2022-08-22T14:53:37.119Z,99967.23
2022-08-22T14:56:19.372Z,99976.33
2022-08-22T14:58:53.688Z,99974.56
2022-08-22T15:01:26.475Z,99973.27
2022-08-22T15:04:05.571Z,99971.08
2022-08-22T15:06:47.853Z,99966.16
2022-08-22T15:09:28.377Z,99962.34
2022-08-22T15:12:03.774Z,99963.48
2022-08-22T15:14:51.969Z,99961.35
2022-08-22T15:17:38.059Z,99956.23
2022-08-22T15:20:14.184Z,99953.90
2022-08-22T15:22:48.990Z,99959.80
2022-08-22T15:25:22.739Z,99961.39
2022-08-22T15:27:56.205Z,99957.58
2022-08-22T15:30:35.703Z,99961.45
2022-08-22T15:33:11.068Z,99961.22
2022-08-22T15:35:44.840Z,99956.06
2022-08-22T15:38:32.550Z,99958.38
2022-08-22T15:41:22.086Z,99958.92
2022-08-22T15:43:54.101Z,99960.73
2022-08-22T15:46:29.836Z,99958.73
2022-08-22T15:49:02.162Z,99959.16
2022-08-22T15:51:45.761Z,99966.48
2022-08-22T15:54:24.902Z,99964.54
2022-08-22T15:57:18.462Z,99967.31
2022-08-22T15:59:54.757Z,99971.02
2022-08-22T16:02:27.202Z,99968.66
2022-08-22T16:05:04.183Z,99968.44
2022-08-22T16:07:39.608Z,99968.94
2022-08-22T16:10:12.365Z,99972.58
2022-08-22T16:12:44.567Z,99970.71
2022-08-22T16:15:35.333Z,99970.25
2022-08-22T16:18:07.497Z,99971.06
2022-08-22T16:20:56.782Z,99967.30
2022-08-22T16:23:29.045Z,99967.34
2022-08-22T16:26:09.722Z,99973.02
2022-08-22T16:28:58.149Z,99974.56
2022-08-22T16:31:33.476Z,99980.04
2022-08-22T16:34:18.875Z,99987.41
2022-08-22T16:36:50.910Z,99992.52
2022-08-22T16:39:39.513Z,99999.48
2022-08-22T16:42:30.172Z,99997.40
2022-08-22T16:45:15.156Z,99999.13
2022-08-22T16:47:56.597Z,100004.80
2022-08-22T16:50:32.296Z,100008.08
2022-08-22T16:53:07.767Z,100009.65
2022-08-22T16:55:46.248Z,100008.45
2022-08-22T16:58:56.605Z,100000.50
2022-08-22T17:01:31.507Z,100000.86
2022-08-22T17:04:04.442Z,100002.08
2022-08-22T17:06:43.245Z,100005.37
2022-08-22T17:09:18.692Z,100010.02
2022-08-22T17:11:54.679Z,100007.80
2022-08-22T17:14:28.432Z,100015.21
2022-08-22T17:17:03.015Z,100010.03
2022-08-22T17:19:46.875Z,100010.02
2022-08-22T17:22:24.025Z,100011.51
2022-08-22T17:25:01.543Z,100010.25
2022-08-22T17:27:35.152Z,100008.41
2022-08-22T17:30:07.253Z,100015.70
2022-08-22T17:32:43.618Z,100016.59
2022-08-22T17:35:19.197Z,100025.15
2022-08-22T17:37:55.991Z,100025.42
2022-08-22T17:40:30.524Z,100034.11
2022-08-22T17:43:07.938Z,100042.02
2022-08-22T17:45:42.357Z,100049.13
2022-08-22T17:48:16.383Z,100054.64
2022-08-22T17:50:48.343Z,100055.23
2022-08-22T17:53:27.531Z,100058.32
2022-08-22T17:56:02.075Z,100059.40
2022-08-22T17:58:43.663Z,100056.71
2022-08-22T18:01:16.740Z,100053.52
2022-08-22T18:03:55.225Z,100058.11
2022-08-22T18:06:27.570Z,100057.10
2022-08-22T18:09:15.415Z,100057.63
2022-08-22T18:11:47.477Z,100061.17
2022-08-22T18:14:24.770Z,100067.80
2022-08-22T18:16:56.601Z,100075.84
2022-08-22T18:19:37.979Z,100079.50
2022-08-22T18:22:13.046Z,100084.39
2022-08-22T18:24:46.861Z,100088.23
2022-08-22T18:27:34.198Z,100091.36
2022-08-22T18:30:21.044Z,100096.28
2022-08-22T18:32:55.948Z,100099.61
2022-08-22T18:35:29.028Z,100107.10
2022-08-22T18:38:01.953Z,100111.36
2022-08-22T18:40:47.919Z,100120.39
2022-08-22T18:43:24.196Z,100126.69
2022-08-22T18:46:05.341Z,100131.08
2022-08-22T18:48:54.713Z,100137.66
2022-08-22T18:51:38.215Z,100135.32
2022-08-22T18:54:27.152Z,100140.45
2022-08-22T18:56:59.675Z,100137.08
2022-08-22T18:59:35.748Z,100130.22
2022-08-22T19:02:16.335Z,100126.08
2022-08-22T19:05:12.831Z,100124.65
2022-08-22T19:07:55.572Z,100126.55
2022-08-22T19:10:37.971Z,100134.75
2022-08-22T19:13:17.926Z,100135.02
2022-08-22T19:15:52.500Z,100133.94
2022-08-22T19:18:30.449Z,100133.79
2022-08-22T19:21:41.191Z,100139.42
2022-08-22T19:24:13.635Z,100142.44
2022-08-22T19:26:47.842Z,100143.46
2022-08-22T19:29:36.045Z,100141.70
2022-08-22T19:32:13.230Z,100141.48
2022-08-22T19:34:47.258Z,100132.88
2022-08-22T19:37:30.665Z,100130.80
2022-08-22T19:40:06.038Z,100134.88
2022-08-22T19:42:37.862Z,100135.90
2022-08-22T19:45:26.793Z,100135.85
2022-08-22T19:48:02.045Z,100137.96
2022-08-22T19:50:35.948Z,100139.09
2022-08-22T19:53:20.619Z,100139.90
2022-08-22T19:55:56.498Z,100140.26
2022-08-22T19:58:32.608Z,100139.59
2022-08-22T20:01:06.509Z,100142.92
2022-08-22T20:03:44.109Z,100136.06
2022-08-22T20:06:43.616Z,100144.78
2022-08-22T20:09:22.401Z,100141.96
2022-08-22T20:11:57.451Z,100141.71
2022-08-22T20:14:32.746Z,100139.87
2022-08-22T20:17:09.654Z,100139.91
2022-08-22T20:22:42.785Z,100149.88
2022-08-22T20:25:42.792Z,100146.89
2022-08-22T20:28:11.863Z,100148.29
2022-08-22T20:30:43.199Z,100146.77
2022-08-22T20:33:17.718Z,100142.48
2022-08-22T20:35:55.297Z,100133.79
2022-08-22T20:38:30.005Z,100133.48
2022-08-22T20:41:03.746Z,100130.25
2022-08-22T20:43:45.563Z,100132.91
2022-08-22T20:46:24.456Z,100129.30
2022-08-22T20:48:56.604Z,100123.45
2022-08-22T20:51:29.527Z,100122.76
2022-08-22T20:54:10.240Z,100117.17
2022-08-22T20:56:53.057Z,100115.35
2022-08-22T20:59:27.698Z,100114.67
2022-08-22T21:01:59.629Z,100117.69
2022-08-22T21:04:34.045Z,100117.32
2022-08-22T21:07:07.673Z,100112.52
2022-08-22T21:09:55.821Z,100116.41
2022-08-22T21:12:30.603Z,100120.50
2022-08-22T21:15:02.843Z,100116.81
2022-08-22T21:17:35.578Z,100107.36
2022-08-22T21:20:21.427Z,100101.39
2022-08-22T21:22:56.231Z,100107.88
2022-08-22T21:25:29.747Z,100117.64
2022-08-22T21:28:01.359Z,100117.28
2022-08-22T21:30:35.284Z,100121.30
2022-08-22T21:33:09.061Z,100121.67
2022-08-22T21:35:39.896Z,100119.92
2022-08-22T21:38:10.802Z,100119.95
2022-08-22T21:40:48.769Z,100116.28
2022-08-22T21:43:31.084Z,100120.79
2022-08-22T21:46:01.838Z,100126.86
2022-08-22T21:48:33.299Z,100130.98
2022-08-22T21:51:24.183Z,100129.74
2022-08-22T21:53:58.212Z,100126.52
2022-08-22T21:56:45.666Z,100130.42
2022-08-22T21:59:51.560Z,100130.73
2022-08-22T22:02:36.870Z,100132.55
2022-08-22T22:05:09.911Z,100130.84
2022-08-22T22:07:42.861Z,100124.79
2022-08-22T22:10:14.606Z,100122.94
2022-08-22T22:12:48.442Z,100117.92
2022-08-22T22:15:20.142Z,100110.83
2022-08-22T22:17:55.620Z,100107.89
2022-08-22T22:20:29.005Z,100107.86
2022-08-22T22:23:07.152Z,100107.88
2022-08-22T22:25:44.720Z,100105.47
2022-08-22T22:28:17.306Z,100100.48
2022-08-22T22:30:53.431Z,100097.86
2022-08-22T22:33:28.489Z,100097.15
2022-08-22T22:36:00.758Z,100099.84
2022-08-22T22:38:31.523Z,100105.16
2022-08-22T22:41:04.991Z,100106.82
2022-08-22T22:43:40.771Z,100106.27
2022-08-22T22:46:11.680Z,100102.01
2022-08-22T22:48:42.445Z,100094.91
2022-08-22T22:51:13.475Z,100093.48
2022-08-22T22:53:45.088Z,100093.79
2022-08-22T22:56:17.265Z,100098.14
2022-08-22T22:58:59.003Z,100105.41
2022-08-22T23:01:34.157Z,100104.32
2022-08-22T23:04:05.870Z,100102.35
2022-08-22T23:06:46.302Z,100102.61
2022-08-22T23:09:19.879Z,100107.80
2022-08-22T23:11:54.995Z,100103.16
2022-08-22T23:14:25.817Z,100095.91
2022-08-22T23:16:57.731Z,100093.38
2022-08-22T23:19:29.897Z,100094.00
2022-08-22T23:22:02.997Z,100098.38
2022-08-22T23:24:34.408Z,100096.66
2022-08-22T23:27:05.556Z,100095.91
2022-08-22T23:29:37.310Z,100092.55
2022-08-22T23:32:08.766Z,100093.20
2022-08-22T23:34:44.150Z,100101.55
2022-08-22T23:37:16.637Z,100106.15
2022-08-22T23:39:51.355Z,100108.36
2022-08-22T23:42:22.203Z,100110.37
2022-08-22T23:44:53.060Z,100109.28
2022-08-22T23:47:27.725Z,100109.77
2022-08-22T23:49:58.550Z,100114.73
2022-08-22T23:52:36.693Z,100118.45
2022-08-22T23:55:12.316Z,100122.98
2022-08-22T23:57:43.084Z,100119.52
